createdAt,value
2018-06-16T00:00:05.933Z,19.5555555556
2018-06-16T00:00:18.372Z,19.5555555556
2018-06-16T00:00:30.801Z,19.5555555556
2018-06-16T00:00:43.263Z,19.5
2018-06-16T00:00:55.851Z,19.5555555556
2018-06-16T00:01:08.446Z,19.5
2018-06-16T00:01:20.852Z,19.5555555556
2018-06-16T00:01:33.248Z,19.5
2018-06-16T00:01:45.662Z,19.5
2018-06-16T00:01:58.070Z,19.5
2018-06-16T00:02:10.476Z,19.5
2018-06-16T00:02:22.924Z,19.5
2018-06-16T00:02:35.463Z,19.5
2018-06-16T00:02:47.865Z,19.5
2018-06-16T00:03:00.263Z,19.5
2018-06-16T00:03:12.690Z,19.5
2018-06-16T00:03:25.113Z,19.5
2018-06-16T00:03:37.527Z,19.5
2018-06-16T00:03:49.908Z,19.5555555556
2018-06-16T00:04:02.309Z,19.5555555556
2018-06-16T00:04:14.718Z,19.5555555556
2018-06-16T00:04:27.121Z,19.5
2018-06-16T00:04:39.540Z,19.5
2018-06-16T00:04:51.950Z,19.5555555556
2018-06-16T00:05:04.367Z,19.5
2018-06-16T00:05:16.774Z,19.5
2018-06-16T00:05:29.173Z,19.5
2018-06-16T00:05:41.567Z,19.5
2018-06-16T00:05:53.965Z,19.5
2018-06-16T00:06:06.369Z,19.5
2018-06-16T00:06:18.775Z,19.5
2018-06-16T00:06:31.313Z,19.5
2018-06-16T00:06:43.720Z,19.5
2018-06-16T00:06:56.323Z,19.5
2018-06-16T00:07:09.180Z,19.5
2018-06-16T00:07:21.588Z,19.5
2018-06-16T00:07:34.022Z,19.5
2018-06-16T00:07:46.465Z,19.5
2018-06-16T00:07:58.871Z,19.5
2018-06-16T00:08:11.272Z,19.5
2018-06-16T00:08:23.674Z,19.5
2018-06-16T00:08:36.084Z,19.5
2018-06-16T00:08:48.487Z,19.5
2018-06-16T00:09:00.880Z,19.5555555556
2018-06-16T00:09:13.285Z,19.5
2018-06-16T00:09:25.709Z,19.5555555556
2018-06-16T00:09:38.118Z,19.5
2018-06-16T00:09:50.518Z,19.5
2018-06-16T00:10:02.946Z,19.5
2018-06-16T00:10:15.337Z,19.5
2018-06-16T00:10:27.732Z,19.5
2018-06-16T00:10:40.144Z,19.5
2018-06-16T00:10:52.545Z,19.5
2018-06-16T00:11:04.963Z,19.5
2018-06-16T00:11:17.357Z,19.5555555556
2018-06-16T00:11:29.773Z,19.5
2018-06-16T00:11:42.203Z,19.5
2018-06-16T00:11:54.611Z,19.5
2018-06-16T00:12:07.005Z,19.5
2018-06-16T00:12:19.414Z,19.5
2018-06-16T00:12:31.951Z,19.5
2018-06-16T00:12:44.347Z,19.5
2018-06-16T00:12:56.733Z,19.5
2018-06-16T00:13:09.133Z,19.5
2018-06-16T00:13:21.542Z,19.5
2018-06-16T00:13:33.944Z,19.5
2018-06-16T00:13:46.716Z,19.5
2018-06-16T00:13:59.144Z,19.5
2018-06-16T00:14:11.539Z,19.5
2018-06-16T00:14:23.935Z,19.5
2018-06-16T00:14:36.389Z,19.5
2018-06-16T00:14:48.783Z,19.5
2018-06-16T00:15:01.198Z,19.5
2018-06-16T00:15:13.601Z,19.5
2018-06-16T00:15:26.000Z,19.5
2018-06-16T00:15:38.412Z,19.5
2018-06-16T00:15:50.849Z,19.5
2018-06-16T00:16:03.239Z,19.5
2018-06-16T00:16:15.629Z,19.5
2018-06-16T00:16:28.072Z,19.5
2018-06-16T00:16:40.460Z,19.5
2018-06-16T00:16:52.886Z,19.5
2018-06-16T00:17:05.289Z,19.5
2018-06-16T00:17:17.687Z,19.5
2018-06-16T00:17:30.094Z,19.5
2018-06-16T00:17:42.579Z,19.4444444444
2018-06-16T00:17:55.122Z,19.5
2018-06-16T00:18:07.520Z,19.5
2018-06-16T00:18:19.932Z,19.5
2018-06-16T00:18:32.344Z,19.4444444444
2018-06-16T00:18:44.736Z,19.5
2018-06-16T00:18:57.155Z,19.5
2018-06-16T00:19:09.700Z,19.4444444444
2018-06-16T00:19:22.260Z,19.5
2018-06-16T00:19:34.675Z,19.4444444444
2018-06-16T00:19:47.062Z,19.5
2018-06-16T00:19:59.469Z,19.4444444444
2018-06-16T00:20:11.881Z,19.5
2018-06-16T00:20:24.292Z,19.5
2018-06-16T00:20:36.690Z,19.4444444444
2018-06-16T00:20:49.097Z,19.5
2018-06-16T00:21:01.559Z,19.4444444444
2018-06-16T00:21:13.978Z,19.4444444444
2018-06-16T00:21:26.383Z,19.4444444444
2018-06-16T00:21:38.804Z,19.4444444444
2018-06-16T00:21:51.215Z,19.4444444444
2018-06-16T00:22:03.648Z,19.4444444444
2018-06-16T00:22:16.030Z,19.4444444444
2018-06-16T00:22:28.439Z,19.4444444444
2018-06-16T00:22:40.855Z,19.4444444444
2018-06-16T00:22:53.471Z,19.4444444444
2018-06-16T00:23:05.887Z,19.4444444444
2018-06-16T00:23:18.308Z,19.4444444444
2018-06-16T00:23:30.721Z,19.4444444444
2018-06-16T00:23:43.145Z,19.4444444444
2018-06-16T00:23:55.658Z,19.3888888889
2018-06-16T00:24:08.080Z,19.4444444444
2018-06-16T00:24:20.474Z,19.3888888889
2018-06-16T00:24:32.856Z,19.4444444444
2018-06-16T00:24:45.250Z,19.3888888889
2018-06-16T00:24:57.666Z,19.3888888889
2018-06-16T00:25:10.080Z,19.3888888889
2018-06-16T00:25:22.488Z,19.3888888889
2018-06-16T00:25:34.886Z,19.3888888889
2018-06-16T00:25:47.293Z,19.3333333333
2018-06-16T00:25:59.698Z,19.3888888889
2018-06-16T00:26:12.087Z,19.3888888889
2018-06-16T00:26:24.492Z,19.3333333333
2018-06-16T00:26:36.905Z,19.3333333333
2018-06-16T00:26:49.305Z,19.3333333333
2018-06-16T00:27:01.725Z,19.3333333333
2018-06-16T00:27:14.139Z,19.3333333333
2018-06-16T00:27:26.544Z,19.3333333333
2018-06-16T00:27:38.943Z,19.3333333333
2018-06-16T00:27:51.342Z,19.3333333333
2018-06-16T00:28:03.743Z,19.3333333333
2018-06-16T00:28:16.218Z,19.3333333333
2018-06-16T00:28:28.683Z,19.3333333333
2018-06-16T00:28:41.085Z,19.3333333333
2018-06-16T00:28:53.485Z,19.3333333333
2018-06-16T00:29:05.888Z,19.3333333333
2018-06-16T00:29:18.275Z,19.3333333333
2018-06-16T00:29:30.659Z,19.3333333333
2018-06-16T00:29:43.039Z,19.2777777778
2018-06-16T00:29:55.491Z,19.3333333333
2018-06-16T00:30:07.879Z,19.3333333333
2018-06-16T00:30:20.313Z,19.2777777778
2018-06-16T00:30:32.711Z,19.3333333333
2018-06-16T00:30:45.159Z,19.2777777778
2018-06-16T00:30:57.604Z,19.2777777778
2018-06-16T00:31:10.020Z,19.2777777778
2018-06-16T00:31:22.469Z,19.2777777778
2018-06-16T00:31:34.865Z,19.2777777778
2018-06-16T00:31:47.256Z,19.2777777778
2018-06-16T00:31:59.665Z,19.2777777778
2018-06-16T00:32:12.130Z,19.2222222222
2018-06-16T00:32:24.569Z,19.2777777778
2018-06-16T00:32:36.961Z,19.2777777778
2018-06-16T00:32:49.368Z,19.2777777778
2018-06-16T00:33:01.762Z,19.2777777778
2018-06-16T00:33:14.227Z,19.2777777778
2018-06-16T00:33:26.611Z,19.2777777778
2018-06-16T00:33:38.997Z,19.2777777778
2018-06-16T00:33:51.400Z,19.2777777778
2018-06-16T00:34:03.805Z,19.2777777778
2018-06-16T00:34:16.199Z,19.2222222222
2018-06-16T00:34:28.585Z,19.2777777778
2018-06-16T00:34:41.008Z,19.2777777778
2018-06-16T00:34:53.406Z,19.2777777778
2018-06-16T00:35:05.809Z,19.2777777778
2018-06-16T00:35:18.243Z,19.2777777778
2018-06-16T00:35:30.645Z,19.2777777778
2018-06-16T00:35:43.051Z,19.2777777778
2018-06-16T00:35:55.462Z,19.2777777778
2018-06-16T00:36:07.868Z,19.2777777778
2018-06-16T00:36:20.283Z,19.2777777778
2018-06-16T00:36:32.682Z,19.2777777778
2018-06-16T00:36:45.143Z,19.2777777778
2018-06-16T00:36:57.545Z,19.2777777778
2018-06-16T00:37:09.965Z,19.2777777778
2018-06-16T00:37:22.367Z,19.2777777778
2018-06-16T00:37:34.771Z,19.2222222222
2018-06-16T00:37:47.171Z,19.2777777778
2018-06-16T00:37:59.569Z,19.2222222222
2018-06-16T00:38:12.028Z,19.2777777778
2018-06-16T00:38:24.439Z,19.2777777778
2018-06-16T00:38:36.849Z,19.2222222222
2018-06-16T00:38:49.305Z,19.2222222222
2018-06-16T00:39:01.710Z,19.2777777778
2018-06-16T00:39:14.112Z,19.2222222222
2018-06-16T00:39:26.533Z,19.2222222222
2018-06-16T00:39:38.958Z,19.2222222222
2018-06-16T00:39:51.377Z,19.2222222222
2018-06-16T00:40:03.800Z,19.2222222222
2018-06-16T00:40:16.205Z,19.2222222222
2018-06-16T00:40:28.607Z,19.2222222222
2018-06-16T00:40:41.006Z,19.1666666667
2018-06-16T00:40:53.395Z,19.2222222222
2018-06-16T00:41:05.813Z,19.2222222222
2018-06-16T00:41:18.591Z,19.1666666667
2018-06-16T00:41:31.534Z,19.1666666667
2018-06-16T00:41:43.936Z,19.1666666667
2018-06-16T00:41:56.333Z,19.1666666667
2018-06-16T00:42:08.729Z,19.1666666667
2018-06-16T00:42:21.122Z,19.1666666667
2018-06-16T00:42:33.511Z,19.1666666667
2018-06-16T00:42:45.910Z,19.1666666667
2018-06-16T00:42:58.309Z,19.1666666667
2018-06-16T00:43:10.732Z,19.1666666667
2018-06-16T00:43:23.146Z,19.1666666667
2018-06-16T00:43:35.557Z,19.1666666667
2018-06-16T00:43:47.996Z,19.1666666667
2018-06-16T00:44:00.397Z,19.1111111111
2018-06-16T00:44:12.795Z,19.1111111111
2018-06-16T00:44:25.192Z,19.1111111111
2018-06-16T00:44:37.585Z,19.1666666667
2018-06-16T00:44:49.978Z,19.1111111111
2018-06-16T00:45:02.388Z,19.1111111111
2018-06-16T00:45:14.816Z,19.1111111111
2018-06-16T00:45:27.223Z,19.1111111111
2018-06-16T00:45:39.609Z,19.1111111111
2018-06-16T00:45:52.017Z,19.1111111111
2018-06-16T00:46:04.599Z,19.0555555556
2018-06-16T00:46:17.012Z,19.0555555556
2018-06-16T00:46:29.427Z,19.1111111111
2018-06-16T00:46:41.858Z,19.1111111111
2018-06-16T00:46:54.268Z,19.1111111111
2018-06-16T00:47:06.670Z,19.0555555556
2018-06-16T00:47:19.073Z,19.0555555556
2018-06-16T00:47:31.466Z,19.0555555556
2018-06-16T00:47:43.850Z,19.0555555556
2018-06-16T00:47:56.238Z,19.0555555556
2018-06-16T00:48:08.642Z,19.0555555556
2018-06-16T00:48:21.051Z,19.0555555556
2018-06-16T00:48:33.564Z,19.0555555556
2018-06-16T00:48:45.947Z,19.0555555556
2018-06-16T00:48:58.350Z,19.0555555556
2018-06-16T00:49:10.784Z,19.0555555556
2018-06-16T00:49:23.182Z,19.0555555556
2018-06-16T00:49:35.619Z,19.0555555556
2018-06-16T00:49:48.025Z,19.0555555556
2018-06-16T00:50:00.429Z,19.0555555556
2018-06-16T00:50:12.854Z,19.0555555556
2018-06-16T00:50:25.254Z,19.0555555556
2018-06-16T00:50:37.669Z,19.0555555556
2018-06-16T00:50:50.092Z,19
2018-06-16T00:51:02.676Z,19
2018-06-16T00:51:15.085Z,19
2018-06-16T00:51:27.472Z,19.0555555556
2018-06-16T00:51:39.854Z,19.0555555556
2018-06-16T00:51:52.238Z,19
2018-06-16T00:52:04.658Z,19
2018-06-16T00:52:17.052Z,19.0555555556
2018-06-16T00:52:29.449Z,19
2018-06-16T00:52:41.848Z,19.0555555556
2018-06-16T00:52:54.609Z,19.0555555556
2018-06-16T00:53:07.432Z,19
2018-06-16T00:53:19.831Z,19.0555555556
2018-06-16T00:53:32.247Z,19
2018-06-16T00:53:44.642Z,19
2018-06-16T00:53:57.037Z,19
2018-06-16T00:54:09.448Z,19
2018-06-16T00:54:21.840Z,19
2018-06-16T00:54:34.241Z,19.0555555556
2018-06-16T00:54:46.643Z,19.0555555556
2018-06-16T00:54:59.051Z,19
2018-06-16T00:55:11.450Z,19
2018-06-16T00:55:23.838Z,19
2018-06-16T00:55:36.238Z,19
2018-06-16T00:55:48.670Z,19.0555555556
2018-06-16T00:56:01.348Z,19
2018-06-16T00:56:13.773Z,19
2018-06-16T00:56:26.177Z,19
2018-06-16T00:56:38.572Z,19.0555555556
2018-06-16T00:56:50.969Z,19
2018-06-16T00:57:03.376Z,19
2018-06-16T00:57:15.796Z,19
2018-06-16T00:57:28.193Z,19
2018-06-16T00:57:40.600Z,19
2018-06-16T00:57:53.006Z,19
2018-06-16T00:58:05.463Z,19
2018-06-16T00:58:17.878Z,19
2018-06-16T00:58:30.260Z,19
2018-06-16T00:58:42.651Z,19
2018-06-16T00:58:55.036Z,19
2018-06-16T00:59:07.479Z,19
2018-06-16T00:59:19.873Z,19
2018-06-16T00:59:32.267Z,19
2018-06-16T00:59:44.663Z,19
2018-06-16T00:59:57.074Z,19
2018-06-16T01:00:09.626Z,19
2018-06-16T01:00:22.070Z,19
2018-06-16T01:00:34.502Z,19
2018-06-16T01:00:46.948Z,19
2018-06-16T01:00:59.511Z,19
2018-06-16T01:01:11.969Z,19
2018-06-16T01:01:24.408Z,19
2018-06-16T01:01:36.853Z,19
2018-06-16T01:01:49.264Z,19
2018-06-16T01:02:01.673Z,19
2018-06-16T01:02:14.079Z,19
2018-06-16T01:02:26.478Z,19
2018-06-16T01:02:38.926Z,19
2018-06-16T01:02:51.336Z,19
2018-06-16T01:03:03.751Z,19
2018-06-16T01:03:16.150Z,19
2018-06-16T01:03:28.564Z,19
2018-06-16T01:03:40.977Z,19
2018-06-16T01:03:53.371Z,18.9444444444
2018-06-16T01:04:05.776Z,19
2018-06-16T01:04:18.194Z,19
2018-06-16T01:04:30.653Z,19
2018-06-16T01:04:43.075Z,19
2018-06-16T01:04:55.474Z,18.9444444444
2018-06-16T01:05:07.884Z,19
2018-06-16T01:05:20.277Z,18.9444444444
2018-06-16T01:05:32.658Z,18.9444444444
2018-06-16T01:05:45.049Z,18.9444444444
2018-06-16T01:05:57.519Z,18.9444444444
2018-06-16T01:06:09.927Z,19
2018-06-16T01:06:22.359Z,18.9444444444
2018-06-16T01:06:34.745Z,18.9444444444
2018-06-16T01:06:47.137Z,18.9444444444
2018-06-16T01:06:59.527Z,19
2018-06-16T01:07:11.920Z,19
2018-06-16T01:07:24.316Z,18.9444444444
2018-06-16T01:07:36.730Z,18.9444444444
2018-06-16T01:07:49.137Z,19
2018-06-16T01:08:01.520Z,18.9444444444
2018-06-16T01:08:13.925Z,18.9444444444
2018-06-16T01:08:26.317Z,18.9444444444
2018-06-16T01:08:38.713Z,18.9444444444
2018-06-16T01:08:51.128Z,18.9444444444
2018-06-16T01:09:03.520Z,18.9444444444
2018-06-16T01:09:15.915Z,18.9444444444
2018-06-16T01:09:28.301Z,18.9444444444
2018-06-16T01:09:40.698Z,18.9444444444
2018-06-16T01:09:53.100Z,18.9444444444
2018-06-16T01:10:05.480Z,18.9444444444
2018-06-16T01:10:17.877Z,18.9444444444
2018-06-16T01:10:30.281Z,18.9444444444
2018-06-16T01:10:42.677Z,18.9444444444
2018-06-16T01:10:55.068Z,18.9444444444
2018-06-16T01:11:07.559Z,18.9444444444
2018-06-16T01:11:19.980Z,18.9444444444
2018-06-16T01:11:32.378Z,18.9444444444
2018-06-16T01:11:44.772Z,18.9444444444
2018-06-16T01:11:57.185Z,18.9444444444
2018-06-16T01:12:09.809Z,18.9444444444
2018-06-16T01:12:22.210Z,18.9444444444
2018-06-16T01:12:34.617Z,18.9444444444
2018-06-16T01:12:47.029Z,18.9444444444
2018-06-16T01:12:59.424Z,18.9444444444
2018-06-16T01:13:11.820Z,18.9444444444
2018-06-16T01:13:24.213Z,18.9444444444
2018-06-16T01:13:36.642Z,18.9444444444
2018-06-16T01:13:49.056Z,18.9444444444
2018-06-16T01:14:01.517Z,18.9444444444
2018-06-16T01:14:13.896Z,18.8888888889
2018-06-16T01:14:26.322Z,18.9444444444
2018-06-16T01:14:38.728Z,18.8888888889
2018-06-16T01:14:51.201Z,18.9444444444
2018-06-16T01:15:03.603Z,18.9444444444
2018-06-16T01:15:16.018Z,18.8888888889
2018-06-16T01:15:28.413Z,18.9444444444
2018-06-16T01:15:40.860Z,18.9444444444
2018-06-16T01:15:53.261Z,18.9444444444
2018-06-16T01:16:05.671Z,18.9444444444
2018-06-16T01:16:18.475Z,18.9444444444
2018-06-16T01:16:31.339Z,18.9444444444
2018-06-16T01:16:43.757Z,18.9444444444
2018-06-16T01:16:56.150Z,18.9444444444
2018-06-16T01:17:08.619Z,18.9444444444
2018-06-16T01:17:21.022Z,18.9444444444
2018-06-16T01:17:33.441Z,18.9444444444
2018-06-16T01:17:45.880Z,18.9444444444
2018-06-16T01:17:58.427Z,18.9444444444
2018-06-16T01:18:10.837Z,18.9444444444
2018-06-16T01:18:23.240Z,18.9444444444
2018-06-16T01:18:35.646Z,18.9444444444
2018-06-16T01:18:48.054Z,18.9444444444
2018-06-16T01:19:00.462Z,18.9444444444
2018-06-16T01:19:12.991Z,18.9444444444
2018-06-16T01:19:25.430Z,18.9444444444
2018-06-16T01:19:37.841Z,18.9444444444
2018-06-16T01:19:50.531Z,18.9444444444
2018-06-16T01:20:02.947Z,18.9444444444
2018-06-16T01:20:15.333Z,18.9444444444
2018-06-16T01:20:27.713Z,18.9444444444
2018-06-16T01:20:40.120Z,18.9444444444
2018-06-16T01:20:52.517Z,18.9444444444
2018-06-16T01:21:04.913Z,18.9444444444
2018-06-16T01:21:17.325Z,18.9444444444
2018-06-16T01:21:29.732Z,18.9444444444
2018-06-16T01:21:42.120Z,18.9444444444
2018-06-16T01:21:54.521Z,18.9444444444
2018-06-16T01:22:06.920Z,18.9444444444
2018-06-16T01:22:19.306Z,18.9444444444
2018-06-16T01:22:31.694Z,18.9444444444
2018-06-16T01:22:44.073Z,18.9444444444
2018-06-16T01:22:56.495Z,18.9444444444
2018-06-16T01:23:08.899Z,18.9444444444
2018-06-16T01:23:21.305Z,18.9444444444
2018-06-16T01:23:33.728Z,18.9444444444
2018-06-16T01:23:46.114Z,18.9444444444
2018-06-16T01:23:58.825Z,18.9444444444
2018-06-16T01:24:11.266Z,18.9444444444
2018-06-16T01:24:23.676Z,18.9444444444
2018-06-16T01:24:36.069Z,18.9444444444
2018-06-16T01:24:48.462Z,18.9444444444
2018-06-16T01:25:00.867Z,18.9444444444
2018-06-16T01:25:13.263Z,18.9444444444
2018-06-16T01:25:25.683Z,18.9444444444
2018-06-16T01:25:38.076Z,18.9444444444
2018-06-16T01:25:50.475Z,18.9444444444
2018-06-16T01:26:02.874Z,18.9444444444
2018-06-16T01:26:15.365Z,18.9444444444
2018-06-16T01:26:27.769Z,18.9444444444
2018-06-16T01:26:40.174Z,18.9444444444
2018-06-16T01:26:52.579Z,18.9444444444
2018-06-16T01:27:04.973Z,18.9444444444
2018-06-16T01:27:17.374Z,18.9444444444
2018-06-16T01:27:29.778Z,18.9444444444
2018-06-16T01:27:42.167Z,18.9444444444
2018-06-16T01:27:54.564Z,18.9444444444
2018-06-16T01:28:06.952Z,18.9444444444
2018-06-16T01:28:19.426Z,18.9444444444
2018-06-16T01:28:31.844Z,18.9444444444
2018-06-16T01:28:44.249Z,18.9444444444
2018-06-16T01:28:56.649Z,18.9444444444
2018-06-16T01:29:09.051Z,18.9444444444
2018-06-16T01:29:21.427Z,18.8888888889
2018-06-16T01:29:33.821Z,18.9444444444
2018-06-16T01:29:46.213Z,18.9444444444
2018-06-16T01:29:58.597Z,18.8888888889
2018-06-16T01:30:11.000Z,18.9444444444
2018-06-16T01:30:23.422Z,18.8888888889
2018-06-16T01:30:35.823Z,18.8888888889
2018-06-16T01:30:48.230Z,18.8888888889
2018-06-16T01:31:00.662Z,18.8888888889
2018-06-16T01:31:13.101Z,18.8888888889
2018-06-16T01:31:25.495Z,18.8888888889
2018-06-16T01:31:37.911Z,18.8888888889
2018-06-16T01:31:50.345Z,18.8888888889
2018-06-16T01:32:02.750Z,18.8888888889
2018-06-16T01:32:15.133Z,18.8888888889
2018-06-16T01:32:27.526Z,18.8888888889
2018-06-16T01:32:39.953Z,18.8888888889
2018-06-16T01:32:52.348Z,18.8888888889
2018-06-16T01:33:04.753Z,18.8888888889
2018-06-16T01:33:17.181Z,18.8888888889
2018-06-16T01:33:29.593Z,18.8333333333
2018-06-16T01:33:41.985Z,18.8888888889
2018-06-16T01:33:54.372Z,18.8888888889
2018-06-16T01:34:06.751Z,18.8888888889
2018-06-16T01:34:19.139Z,18.8888888889
2018-06-16T01:34:31.528Z,18.8333333333
2018-06-16T01:34:43.909Z,18.8333333333
2018-06-16T01:34:56.296Z,18.8333333333
2018-06-16T01:35:08.701Z,18.8333333333
2018-06-16T01:35:21.122Z,18.8333333333
2018-06-16T01:35:33.516Z,18.8333333333
2018-06-16T01:35:45.914Z,18.8333333333
2018-06-16T01:35:58.317Z,18.8333333333
2018-06-16T01:36:10.760Z,18.8333333333
2018-06-16T01:36:23.270Z,18.8333333333
2018-06-16T01:36:35.679Z,18.7777777778
2018-06-16T01:36:48.061Z,18.8333333333
2018-06-16T01:37:00.449Z,18.8333333333
2018-06-16T01:37:12.836Z,18.8333333333
2018-06-16T01:37:25.294Z,18.8333333333
2018-06-16T01:37:37.699Z,18.8333333333
2018-06-16T01:37:50.095Z,18.8333333333
2018-06-16T01:38:02.490Z,18.8333333333
2018-06-16T01:38:14.962Z,18.8333333333
2018-06-16T01:38:27.416Z,18.8333333333
2018-06-16T01:38:39.810Z,18.8333333333
2018-06-16T01:38:52.221Z,18.8333333333
2018-06-16T01:39:04.648Z,18.8333333333
2018-06-16T01:39:17.042Z,18.8333333333
2018-06-16T01:39:29.634Z,18.8333333333
2018-06-16T01:39:42.014Z,18.7777777778
2018-06-16T01:39:54.522Z,18.7777777778
2018-06-16T01:40:06.901Z,18.8333333333
2018-06-16T01:40:19.324Z,18.7777777778
2018-06-16T01:40:31.711Z,18.7777777778
2018-06-16T01:40:44.096Z,18.7777777778
2018-06-16T01:40:56.485Z,18.8333333333
2018-06-16T01:41:08.879Z,18.7777777778
2018-06-16T01:41:21.337Z,18.7777777778
2018-06-16T01:41:33.757Z,18.8333333333
2018-06-16T01:41:46.155Z,18.7777777778
2018-06-16T01:41:58.563Z,18.7777777778
2018-06-16T01:42:10.975Z,18.8333333333
2018-06-16T01:42:23.405Z,18.7777777778
2018-06-16T01:42:35.819Z,18.7777777778
2018-06-16T01:42:48.261Z,18.7777777778
2018-06-16T01:43:00.667Z,18.7777777778
2018-06-16T01:43:13.098Z,18.7777777778
2018-06-16T01:43:25.498Z,18.7777777778
2018-06-16T01:43:37.910Z,18.7777777778
2018-06-16T01:43:50.316Z,18.7777777778
2018-06-16T01:44:02.706Z,18.7777777778
2018-06-16T01:44:15.095Z,18.7777777778
2018-06-16T01:44:27.507Z,18.7777777778
2018-06-16T01:44:39.902Z,18.7777777778
2018-06-16T01:44:52.310Z,18.7777777778
2018-06-16T01:45:04.738Z,18.7777777778
2018-06-16T01:45:17.126Z,18.7777777778
2018-06-16T01:45:29.584Z,18.7777777778
2018-06-16T01:45:42.002Z,18.7777777778
2018-06-16T01:45:54.553Z,18.7777777778
2018-06-16T01:46:06.968Z,18.7777777778
2018-06-16T01:46:19.382Z,18.7777777778
2018-06-16T01:46:31.770Z,18.7777777778
2018-06-16T01:46:44.296Z,18.7777777778
2018-06-16T01:46:56.693Z,18.7777777778
2018-06-16T01:47:09.142Z,18.7777777778
2018-06-16T01:47:21.579Z,18.7777777778
2018-06-16T01:47:33.995Z,18.7777777778
2018-06-16T01:47:46.397Z,18.7777777778
2018-06-16T01:47:58.799Z,18.7777777778
2018-06-16T01:48:11.202Z,18.7777777778
2018-06-16T01:48:23.620Z,18.7777777778
2018-06-16T01:48:36.158Z,18.7777777778
2018-06-16T01:48:48.568Z,18.7777777778
2018-06-16T01:49:00.967Z,18.7777777778
2018-06-16T01:49:13.388Z,18.7777777778
2018-06-16T01:49:25.781Z,18.7777777778
2018-06-16T01:49:38.196Z,18.7777777778
2018-06-16T01:49:50.582Z,18.7777777778
2018-06-16T01:50:03.134Z,18.7777777778
2018-06-16T01:50:15.531Z,18.7777777778
2018-06-16T01:50:27.944Z,18.7777777778
2018-06-16T01:50:40.386Z,18.7777777778
2018-06-16T01:50:52.817Z,18.7777777778
2018-06-16T01:51:05.453Z,18.7222222222
2018-06-16T01:51:17.858Z,18.7777777778
2018-06-16T01:51:30.317Z,18.7777777778
2018-06-16T01:51:42.733Z,18.7222222222
2018-06-16T01:51:55.138Z,18.7777777778
2018-06-16T01:52:07.520Z,18.7777777778
2018-06-16T01:52:19.931Z,18.7777777778
2018-06-16T01:52:32.323Z,18.7777777778
2018-06-16T01:52:44.741Z,18.7222222222
2018-06-16T01:52:57.181Z,18.7777777778
2018-06-16T01:53:09.578Z,18.7222222222
2018-06-16T01:53:21.963Z,18.7222222222
2018-06-16T01:53:34.377Z,18.7222222222
2018-06-16T01:53:46.770Z,18.7222222222
2018-06-16T01:53:59.180Z,18.7222222222
2018-06-16T01:54:11.607Z,18.7222222222
2018-06-16T01:54:24.016Z,18.7222222222
2018-06-16T01:54:36.436Z,18.7222222222
2018-06-16T01:54:48.838Z,18.7222222222
2018-06-16T01:55:01.242Z,18.7222222222
2018-06-16T01:55:13.642Z,18.7222222222
2018-06-16T01:55:26.052Z,18.7222222222
2018-06-16T01:55:38.479Z,18.7222222222
2018-06-16T01:55:50.890Z,18.6666666667
2018-06-16T01:56:03.345Z,18.7222222222
2018-06-16T01:56:15.754Z,18.7222222222
2018-06-16T01:56:28.131Z,18.6666666667
2018-06-16T01:56:40.526Z,18.6666666667
2018-06-16T01:56:52.942Z,18.7222222222
2018-06-16T01:57:05.376Z,18.6666666667
2018-06-16T01:57:17.781Z,18.6666666667
2018-06-16T01:57:30.199Z,18.6666666667
2018-06-16T01:57:42.762Z,18.6666666667
2018-06-16T01:57:55.150Z,18.6666666667
2018-06-16T01:58:07.546Z,18.6666666667
2018-06-16T01:58:19.937Z,18.6666666667
2018-06-16T01:58:32.330Z,18.6666666667
2018-06-16T01:58:44.758Z,18.6111111111
2018-06-16T01:58:57.161Z,18.6666666667
2018-06-16T01:59:09.545Z,18.6111111111
2018-06-16T01:59:21.928Z,18.6666666667
2018-06-16T01:59:34.338Z,18.6111111111
2018-06-16T01:59:46.734Z,18.6666666667
2018-06-16T01:59:59.113Z,18.6666666667
2018-06-16T02:00:11.537Z,18.6111111111
2018-06-16T02:00:24.046Z,18.6111111111
2018-06-16T02:00:36.469Z,18.6666666667
2018-06-16T02:00:48.892Z,18.6111111111
2018-06-16T02:01:01.398Z,18.6111111111
2018-06-16T02:01:13.825Z,18.6111111111
2018-06-16T02:01:26.242Z,18.6111111111
2018-06-16T02:01:38.677Z,18.6111111111
2018-06-16T02:01:51.078Z,18.6111111111
2018-06-16T02:02:03.486Z,18.6111111111
2018-06-16T02:02:15.917Z,18.6111111111
2018-06-16T02:02:28.306Z,18.6111111111
2018-06-16T02:02:40.798Z,18.6111111111
2018-06-16T02:02:53.210Z,18.5555555556
2018-06-16T02:03:05.666Z,18.5555555556
2018-06-16T02:03:18.052Z,18.5555555556
2018-06-16T02:03:30.436Z,18.5555555556
2018-06-16T02:03:42.831Z,18.5555555556
2018-06-16T02:03:55.226Z,18.5555555556
2018-06-16T02:04:07.631Z,18.5555555556
2018-06-16T02:04:20.029Z,18.5555555556
2018-06-16T02:04:32.422Z,18.5555555556
2018-06-16T02:04:44.879Z,18.5555555556
2018-06-16T02:04:57.317Z,18.5555555556
2018-06-16T02:05:09.785Z,18.5555555556
2018-06-16T02:05:22.321Z,18.5555555556
2018-06-16T02:05:34.726Z,18.5
2018-06-16T02:05:47.104Z,18.5
2018-06-16T02:05:59.550Z,18.5
2018-06-16T02:06:11.948Z,18.5
2018-06-16T02:06:24.347Z,18.5
2018-06-16T02:06:36.754Z,18.5
2018-06-16T02:06:49.142Z,18.5
2018-06-16T02:07:01.534Z,18.5
2018-06-16T02:07:13.953Z,18.5
2018-06-16T02:07:26.346Z,18.4444444444
2018-06-16T02:07:38.744Z,18.4444444444
2018-06-16T02:07:51.158Z,18.5
2018-06-16T02:08:03.543Z,18.4444444444
2018-06-16T02:08:15.932Z,18.4444444444
2018-06-16T02:08:28.336Z,18.4444444444
2018-06-16T02:08:40.739Z,18.4444444444
2018-06-16T02:08:53.216Z,18.4444444444
2018-06-16T02:09:05.620Z,18.4444444444
2018-06-16T02:09:18.010Z,18.4444444444
2018-06-16T02:09:30.408Z,18.3888888889
2018-06-16T02:09:42.805Z,18.3888888889
2018-06-16T02:09:55.190Z,18.4444444444
2018-06-16T02:10:07.578Z,18.3888888889
2018-06-16T02:10:20.017Z,18.4444444444
2018-06-16T02:10:32.408Z,18.4444444444
2018-06-16T02:10:44.800Z,18.4444444444
2018-06-16T02:10:57.247Z,18.4444444444
2018-06-16T02:11:09.653Z,18.4444444444
2018-06-16T02:11:22.067Z,18.3888888889
2018-06-16T02:11:34.481Z,18.3888888889
2018-06-16T02:11:46.870Z,18.3888888889
2018-06-16T02:11:59.266Z,18.3888888889
2018-06-16T02:12:11.729Z,18.3888888889
2018-06-16T02:12:24.143Z,18.3888888889
2018-06-16T02:12:36.552Z,18.3888888889
2018-06-16T02:12:48.968Z,18.3888888889
2018-06-16T02:13:01.384Z,18.3888888889
2018-06-16T02:13:13.809Z,18.3888888889
2018-06-16T02:13:26.222Z,18.3888888889
2018-06-16T02:13:38.613Z,18.3888888889
2018-06-16T02:13:50.988Z,18.3888888889
2018-06-16T02:14:03.405Z,18.3888888889
2018-06-16T02:14:15.838Z,18.3333333333
2018-06-16T02:14:28.228Z,18.3888888889
2018-06-16T02:14:40.629Z,18.3333333333
2018-06-16T02:14:53.042Z,18.3888888889
2018-06-16T02:15:05.428Z,18.3888888889